Time;durP1;ratioP1;P1;durP2;ratioP2;P2;SDS_P1;SDS_P2;PMS_P1;PMS_P2;Temp;Humidity;BMP_temperature;BMP_pressure;BME280_temperature;BME280_humidity;BME280_pressure;Samples;Min_cycle;Max_cycle;Signal;HPM_P1;HPM_P2
2022/10/13 08:59:54;;;;;;;27.95;19.77;;;13.40;99.90;;;;;;4971715;27;20484;-87
2022/10/13 09:02:28;;;;;;;25.35;20.02;;;12.90;99.90;;;;;;4997637;28;20128;-87
2022/10/13 09:04:58;;;;;;;24.98;19.05;;;12.70;99.90;;;;;;4995217;28;20550;-87
2022/10/13 09:07:28;;;;;;;28.70;19.55;;;12.80;99.90;;;;;;5004789;28;20046;-87
2022/10/13 09:09:54;;;;;;;26.58;18.40;;;12.80;99.90;;;;;;5004691;28;20054;-87
2022/10/13 09:12:23;;;;;;;24.50;18.15;;;12.70;99.90;;;;;;4995984;28;20065;-87
2022/10/13 09:15:04;;;;;;;27.08;18.85;;;12.90;99.90;;;;;;4997520;28;20121;-87
2022/10/13 09:17:30;;;;;;;28.05;19.55;;;12.80;99.90;;;;;;4977098;28;20050;-87
2022/10/13 09:20:03;;;;;;;27.45;20.35;;;12.80;99.90;;;;;;4996367;28;20046;-87
2022/10/13 09:22:34;;;;;;;32.17;20.10;;;12.70;99.90;;;;;;4985960;28;20053;-89
2022/10/13 09:25:06;;;;;;;30.92;19.98;;;12.70;99.90;;;;;;5003730;28;20046;-88
2022/10/13 09:27:46;;;;;;;27.83;19.33;;;12.70;99.90;;;;;;4981848;28;20069;-84
2022/10/13 09:30:35;;;;;;;31.67;21.38;;;12.80;99.90;;;;;;5003263;28;20050;-86
2022/10/13 09:33:07;;;;;;;29.42;19.77;;;12.90;99.90;;;;;;4993347;28;20046;-88
2022/10/13 09:35:35;;;;;;;31.10;20.65;;;13.00;99.90;;;;;;4984443;28;20464;-84
2022/10/13 09:38:16;;;;;;;33.50;21.20;;;13.00;99.90;;;;;;5005021;28;20054;-82
2022/10/13 09:40:54;;;;;;;31.05;21.70;;;13.10;99.90;;;;;;4993608;28;20054;-83
2022/10/13 09:43:39;;;;;;;27.77;19.98;;;13.50;99.90;;;;;;5004331;28;20047;-85
2022/10/13 09:46:27;;;;;;;27.77;18.55;;;13.10;99.90;;;;;;5020349;28;20053;-85
2022/10/13 09:48:56;;;;;;;28.63;19.25;;;13.10;99.90;;;;;;4997259;28;20153;-84
2022/10/13 09:51:43;;;;;;;23.88;18.77;;;13.10;99.90;;;;;;5001947;28;20046;-84
2022/10/13 09:54:47;;;;;;;26.48;18.08;;;13.20;99.90;;;;;;4997514;28;20050;-85
2022/10/13 09:57:51;;;;;;;26.63;18.85;;;13.20;99.90;;;;;;5002032;28;20117;-85
2022/10/13 10:00:21;;;;;;;22.88;17.73;;;13.20;99.90;;;;;;4979392;28;20492;-85
2022/10/13 10:03:04;;;;;;;27.35;18.88;;;13.30;99.90;;;;;;4970765;28;20057;-85
2022/10/13 10:05:50;;;;;;;25.27;18.98;;;13.30;99.90;;;;;;4995580;28;20051;-86
2022/10/13 10:08:30;;;;;;;24.42;18.90;;;13.20;99.90;;;;;;4969489;28;20061;-85
2022/10/13 10:11:01;;;;;;;26.08;19.08;;;13.20;99.90;;;;;;4967390;28;20043;-85
2022/10/13 10:13:27;;;;;;;26.13;18.98;;;13.10;99.90;;;;;;4953077;28;20054;-86
2022/10/13 10:15:59;;;;;;;34.80;20.02;;;13.10;99.90;;;;;;4964198;28;20043;-88
2022/10/13 10:18:31;;;;;;;28.92;19.38;;;13.20;99.90;;;;;;4952535;28;20211;-88
2022/10/13 10:21:08;;;;;;;27.00;18.48;;;13.00;99.90;;;;;;4959244;28;20042;-86
2022/10/13 10:23:50;;;;;;;27.08;18.33;;;13.00;99.90;;;;;;4945635;28;20058;-87
2022/10/13 10:26:25;;;;;;;25.90;18.45;;;12.90;99.90;;;;;;4959746;28;20121;-87
2022/10/13 10:29:12;;;;;;;33.55;19.83;;;12.90;99.90;;;;;;4962728;28;20067;-87
2022/10/13 10:31:58;;;;;;;27.45;19.20;;;12.90;99.90;;;;;;4963391;28;20054;-86
2022/10/13 10:34:50;;;;;;;31.17;20.25;;;12.80;99.90;;;;;;4963168;28;20047;-87
2022/10/13 10:37:18;;;;;;;33.63;22.27;;;12.80;99.90;;;;;;4955188;28;20055;-87
2022/10/13 10:39:52;;;;;;;32.45;23.52;;;12.80;99.90;;;;;;4936036;29;20138;-86
2022/10/13 10:42:36;;;;;;;31.90;22.05;;;12.80;99.90;;;;;;4935814;29;20047;-86
2022/10/13 10:45:08;;;;;;;36.65;26.10;;;12.80;99.90;;;;;;4952293;29;20051;-86
2022/10/13 10:47:42;;;;;;;38.33;27.63;;;12.90;99.90;;;;;;4943838;28;20038;-85
2022/10/13 10:50:14;;;;;;;41.63;27.95;;;12.90;99.90;;;;;;4959555;28;20047;-85
2022/10/13 10:52:52;;;;;;;32.15;25.23;;;13.40;99.90;;;;;;4951661;29;20167;-87
2022/10/13 10:55:33;;;;;;;32.15;23.70;;;12.90;99.90;;;;;;4955493;28;20392;-87
2022/10/13 10:58:19;;;;;;;40.13;24.53;;;12.90;99.90;;;;;;4965367;28;20067;-87
2022/10/13 11:00:58;;;;;;;33.42;23.13;;;12.90;99.90;;;;;;4952498;29;20210;-87
2022/10/13 11:03:29;;;;;;;32.35;22.73;;;12.90;99.90;;;;;;4952213;28;20039;-87
2022/10/13 11:06:02;;;;;;;34.60;23.38;;;12.90;99.90;;;;;;4952136;29;20118;-87
2022/10/13 11:08:36;;;;;;;33.25;23.40;;;12.90;99.90;;;;;;4952054;29;20048;-87
2022/10/13 11:11:21;;;;;;;30.70;22.60;;;13.00;99.90;;;;;;4951692;29;20514;-86
2022/10/13 11:14:01;;;;;;;31.55;22.27;;;13.10;99.90;;;;;;4951760;29;20047;-86
2022/10/13 11:16:32;;;;;;;35.03;25.90;;;13.10;99.90;;;;;;4939053;28;20047;-87
2022/10/13 11:19:06;;;;;;;36.17;25.73;;;13.20;99.90;;;;;;4962324;28;20050;-86
2022/10/13 11:21:54;;;;;;;34.33;24.70;;;13.30;99.90;;;;;;4939027;28;20055;-90
2022/10/13 11:24:39;;;;;;;35.05;26.98;;;;;;;;;;4952672;28;20046;-86
2022/10/13 11:27:09;;;;;;;31.05;22.58;;;13.50;99.90;;;;;;4970552;28;20070;-86
2022/10/13 11:29:45;;;;;;;35.50;25.70;;;13.50;99.90;;;;;;4971393;28;20503;-85
2022/10/13 11:35:21;;;;;;;32.72;24.77;;;13.80;99.90;;;;;;4970961;28;20792;-84
2022/10/13 11:37:47;;;;;;;34.40;24.55;;;13.70;99.90;;;;;;4966614;28;20047;-85
2022/10/13 11:40:14;;;;;;;34.95;26.25;;;15.60;99.90;;;;;;4952086;28;20054;-84
2022/10/13 11:43:19;;;;;;;39.35;25.42;;;13.40;99.90;;;;;;4949844;28;20146;-83
2022/10/13 11:46:05;;;;;;;29.05;22.55;;;13.50;99.90;;;;;;4957798;28;20135;-87
2022/10/13 11:48:43;;;;;;;39.72;26.33;;;13.60;99.90;;;;;;4953608;28;20117;-84
2022/10/13 11:51:24;;;;;;;34.13;24.40;;;13.50;99.90;;;;;;4970527;28;20568;-84
2022/10/13 11:54:08;;;;;;;40.63;26.25;;;13.50;99.90;;;;;;4970653;28;20051;-84
2022/10/13 11:56:55;;;;;;;36.22;24.52;;;13.60;99.90;;;;;;4963880;28;20097;-84
2022/10/13 11:59:21;;;;;;;40.35;24.15;;;13.50;99.90;;;;;;4967322;28;20779;-84
2022/10/13 12:01:46;;;;;;;37.63;26.63;;;13.50;99.90;;;;;;4970396;28;20082;-84
2022/10/13 12:04:14;;;;;;;35.92;25.90;;;13.50;99.90;;;;;;4970529;28;20519;-84
2022/10/13 12:06:41;;;;;;;33.50;24.75;;;13.40;99.90;;;;;;4970189;28;20113;-84
2022/10/13 12:09:19;;;;;;;40.83;24.75;;;13.40;99.90;;;;;;4970132;28;20551;-84
2022/10/13 12:11:45;;;;;;;38.30;27.27;;;13.40;99.90;;;;;;4968529;28;20066;-84
2022/10/13 12:14:38;;;;;;;40.72;26.65;;;13.40;99.90;;;;;;4967878;28;20063;-85
2022/10/13 12:17:26;;;;;;;41.42;27.77;;;13.40;99.90;;;;;;4947680;28;20624;-85
2022/10/13 12:20:00;;;;;;;38.25;27.48;;;13.40;99.90;;;;;;4950780;28;20535;-84
2022/10/13 12:22:27;;;;;;;38.40;27.15;;;13.50;99.90;;;;;;4949514;28;20485;-84
2022/10/13 12:25:05;;;;;;;36.47;26.77;;;13.50;99.90;;;;;;4949276;28;20051;-83
2022/10/13 12:27:38;;;;;;;38.85;27.05;;;13.50;99.90;;;;;;4948986;28;20146;-84
2022/10/13 12:30:23;;;;;;;40.65;27.83;;;13.50;99.90;;;;;;4949644;28;20138;-84
2022/10/13 12:32:51;;;;;;;46.85;31.30;;;13.50;99.90;;;;;;4958964;28;20054;-83
2022/10/13 12:35:29;;;;;;;42.05;28.85;;;13.50;99.90;;;;;;4951711;28;20053;-84
2022/10/13 12:37:56;;;;;;;39.78;28.52;;;13.50;99.90;;;;;;4968711;28;20552;-83
2022/10/13 12:40:23;;;;;;;38.72;26.52;;;13.60;99.90;;;;;;4969027;28;20691;-84
2022/10/13 12:42:49;;;;;;;40.13;28.23;;;13.50;99.90;;;;;;4968153;28;20038;-84
2022/10/13 12:45:21;;;;;;;40.58;28.65;;;13.50;99.90;;;;;;4966336;28;20489;-84
2022/10/13 12:47:50;;;;;;;41.13;29.50;;;13.50;99.90;;;;;;4967507;28;20079;-83
2022/10/13 12:50:28;;;;;;;41.97;27.48;;;13.60;99.90;;;;;;4984295;28;20106;-84
2022/10/13 12:53:09;;;;;;;39.30;27.85;;;13.60;99.90;;;;;;4950272;28;20564;-84
2022/10/13 12:55:44;;;;;;;39.63;27.35;;;13.60;99.90;;;;;;4950525;28;20082;-84
2022/10/13 12:58:19;;;;;;;38.72;27.65;;;13.60;99.90;;;;;;4948288;29;20063;-84
2022/10/13 13:00:59;;;;;;;35.47;25.80;;;13.60;99.90;;;;;;4949147;29;20062;-83
2022/10/13 13:03:27;;;;;;;37.83;25.95;;;13.70;99.90;;;;;;4950043;28;20465;-84
2022/10/13 13:06:07;;;;;;;34.20;25.95;;;13.70;99.90;;;;;;4955194;28;20042;-84
2022/10/13 13:08:33;;;;;;;38.92;26.45;;;13.80;99.90;;;;;;4968510;28;20073;-83
2022/10/13 13:11:05;;;;;;;33.42;24.60;;;13.90;99.90;;;;;;4968348;28;20532;-83
2022/10/13 13:13:32;;;;;;;32.83;23.77;;;13.90;99.90;;;;;;4968035;28;20050;-83
2022/10/13 13:16:14;;;;;;;31.30;23.10;;;14.00;99.90;;;;;;4966581;28;20410;-83
2022/10/13 13:18:42;;;;;;;29.88;21.80;;;14.00;99.90;;;;;;4952120;28;20204;-83
2022/10/13 13:21:11;;;;;;;29.25;22.17;;;14.10;99.90;;;;;;4967937;28;20049;-84
2022/10/13 13:23:37;;;;;;;34.10;23.63;;;14.20;99.90;;;;;;4968286;28;20043;-84
2022/10/13 13:26:16;;;;;;;28.55;21.88;;;14.30;99.90;;;;;;4967705;28;20047;-84
2022/10/13 13:28:48;;;;;;;25.08;20.38;;;14.30;99.90;;;;;;4967094;28;20046;-85
2022/10/13 13:31:18;;;;;;;25.58;20.20;;;14.30;99.90;;;;;;4953520;28;20058;-84
2022/10/13 13:33:45;;;;;;;33.05;26.75;;;14.40;99.90;;;;;;4952494;28;20043;-85
2022/10/13 13:36:24;;;;;;;33.03;26.73;;;14.40;99.90;;;;;;4957529;28;20051;-84
2022/10/13 13:38:50;;;;;;;37.53;28.13;;;14.40;99.90;;;;;;4948692;29;20409;-85
2022/10/13 13:41:16;;;;;;;26.98;21.92;;;14.40;99.90;;;;;;4952086;28;20548;-84
2022/10/13 13:43:42;;;;;;;24.05;19.75;;;14.30;99.90;;;;;;4964687;28;20153;-84
2022/10/13 13:46:26;;;;;;;21.83;19.17;;;14.80;99.90;;;;;;4955449;28;20469;-85
2022/10/13 13:48:52;;;;;;;24.58;19.63;;;14.20;99.90;;;;;;4957006;28;20086;-84
2022/10/13 13:51:18;;;;;;;24.27;19.35;;;14.20;99.90;;;;;;4953297;28;20500;-85
2022/10/13 13:53:43;;;;;;;27.75;21.30;;;14.10;99.90;;;;;;4953221;28;20047;-84
2022/10/13 13:56:15;;;;;;;26.10;20.95;;;14.10;99.90;;;;;;4952818;29;20039;-89
2022/10/13 13:58:41;;;;;;;23.35;19.30;;;14.40;99.90;;;;;;4969029;28;20059;-87
2022/10/13 14:01:07;;;;;;;21.40;16.67;;;13.90;99.90;;;;;;4973589;28;20058;-88
2022/10/13 14:03:33;;;;;;;20.27;16.30;;;13.90;99.90;;;;;;4965874;28;20046;-93
2022/10/13 14:05:59;;;;;;;19.92;15.60;;;13.90;99.90;;;;;;4958966;28;20350;-84
2022/10/13 14:08:24;;;;;;;20.70;16.38;;;13.70;99.90;;;;;;4971503;28;20050;-85
2022/10/13 14:10:50;;;;;;;21.02;15.48;;;13.70;99.90;;;;;;4971736;28;20506;-87
2022/10/13 14:13:16;;;;;;;21.48;16.65;;;13.70;99.90;;;;;;4955206;28;20133;-87
2022/10/13 14:15:41;;;;;;;20.75;16.67;;;13.60;99.90;;;;;;4955028;28;20050;-88
2022/10/13 14:18:07;;;;;;;22.38;17.48;;;13.60;99.90;;;;;;4963068;28;20042;-87
2022/10/13 14:20:33;;;;;;;24.58;17.88;;;;;;;;;;4942964;28;20142;-86
2022/10/13 14:22:59;;;;;;;29.05;20.27;;;13.50;99.90;;;;;;4970085;28;20158;-86
2022/10/13 14:25:24;;;;;;;24.73;18.90;;;13.50;99.90;;;;;;4971411;28;20051;-86
2022/10/13 14:27:50;;;;;;;25.83;20.33;;;13.50;99.90;;;;;;4966692;28;20039;-88
2022/10/13 14:30:15;;;;;;;23.63;18.80;;;13.40;99.90;;;;;;4970645;28;20069;-89
2022/10/13 14:32:41;;;;;;;25.13;17.85;;;13.50;99.90;;;;;;4936966;29;20054;-86
2022/10/13 14:35:07;;;;;;;24.30;17.55;;;13.50;99.90;;;;;;4951545;28;20397;-86
2022/10/13 14:37:33;;;;;;;21.88;17.15;;;13.50;99.90;;;;;;4951829;28;20513;-86
2022/10/13 14:39:58;;;;;;;25.17;18.70;;;13.60;99.90;;;;;;4951329;28;20054;-87
2022/10/13 14:42:24;;;;;;;23.38;17.80;;;13.60;99.90;;;;;;4954660;28;20039;-86
2022/10/13 14:44:49;;;;;;;19.90;15.25;;;13.60;99.90;;;;;;4952571;28;20069;-86
2022/10/13 14:47:15;;;;;;;21.48;15.52;;;13.70;99.90;;;;;;4964948;28;20085;-86
2022/10/13 14:49:40;;;;;;;19.75;15.88;;;13.60;99.90;;;;;;4957304;28;20058;-87
2022/10/13 14:52:07;;;;;;;18.20;14.13;;;13.60;99.90;;;;;;4951414;28;20414;-87
2022/10/13 14:54:33;;;;;;;16.60;13.68;;;14.10;99.90;;;;;;4943072;28;20128;-86
2022/10/13 14:57:03;;;;;;;14.80;12.23;;;14.00;99.90;;;;;;4969702;28;20480;-86
2022/10/13 14:59:29;;;;;;;15.27;12.25;;;13.70;99.90;;;;;;4980766;28;20105;-86
2022/10/13 15:01:55;;;;;;;15.30;11.98;;;13.70;99.90;;;;;;4970097;28;20043;-88
2022/10/13 15:04:20;;;;;;;15.48;12.07;;;13.70;99.90;;;;;;4966823;28;20046;-85
2022/10/13 15:06:46;;;;;;;14.10;11.93;;;13.70;99.90;;;;;;4984808;28;20129;-86
2022/10/13 15:09:12;;;;;;;14.68;11.25;;;13.70;99.90;;;;;;4982216;28;20070;-86
2022/10/13 15:11:37;;;;;;;14.45;11.25;;;13.70;99.90;;;;;;4988808;28;20051;-85
2022/10/13 15:14:03;;;;;;;13.90;10.43;;;13.70;99.90;;;;;;4989430;28;20061;-85
2022/10/13 15:16:32;;;;;;;13.57;11.55;;;13.70;99.90;;;;;;4988136;28;20482;-85
2022/10/13 15:18:58;;;;;;;13.30;10.85;;;13.70;99.90;;;;;;4987131;28;20725;-85
2022/10/13 15:21:24;;;;;;;12.88;10.90;;;13.70;99.90;;;;;;4971977;28;20042;-85
2022/10/13 15:23:49;;;;;;;15.88;10.48;;;13.80;99.90;;;;;;4971282;28;20109;-87
2022/10/13 15:26:17;;;;;;;14.68;10.50;;;13.80;99.90;;;;;;4970007;28;20138;-85
2022/10/13 15:28:47;;;;;;;14.13;11.75;;;13.80;99.90;;;;;;4969824;28;20527;-86
2022/10/13 15:31:14;;;;;;;14.63;11.85;;;13.80;99.90;;;;;;4973304;28;20057;-86
2022/10/13 15:33:44;;;;;;;15.88;10.80;;;13.80;99.90;;;;;;4978097;28;20046;-87
2022/10/13 15:36:10;;;;;;;11.50;10.30;;;13.80;99.90;;;;;;4990103;28;20041;-87
2022/10/13 15:38:36;;;;;;;13.27;10.07;;;13.70;99.90;;;;;;4980833;28;20043;-87
2022/10/13 15:41:04;;;;;;;13.23;10.43;;;13.70;99.90;;;;;;4961761;28;20051;-88
2022/10/13 15:43:29;;;;;;;13.45;10.75;;;13.70;99.90;;;;;;4969443;28;20445;-85
2022/10/13 15:46:01;;;;;;;14.48;11.00;;;13.70;99.90;;;;;;4969478;28;20183;-85
2022/10/13 15:48:26;;;;;;;12.57;10.40;;;13.70;99.90;;;;;;4971563;28;20050;-86
2022/10/13 15:50:52;;;;;;;11.98;10.32;;;13.60;99.90;;;;;;4982684;28;20042;-86
2022/10/13 15:53:19;;;;;;;11.07;9.52;;;14.00;99.90;;;;;;4970638;28;20564;-86
2022/10/13 15:55:47;;;;;;;13.25;9.13;;;13.90;99.90;;;;;;4984929;28;20093;-86
2022/10/13 15:58:14;;;;;;;11.75;10.20;;;13.50;99.90;;;;;;4968094;28;20058;-85
2022/10/13 16:00:40;;;;;;;12.98;10.52;;;13.50;99.90;;;;;;4970570;28;20105;-85
2022/10/13 16:03:06;;;;;;;14.45;9.82;;;13.50;99.90;;;;;;4982729;28;20133;-86
2022/10/13 16:05:32;;;;;;;11.43;9.85;;;13.50;99.90;;;;;;4968581;28;20126;-85
2022/10/13 16:07:57;;;;;;;14.20;10.63;;;13.50;99.90;;;;;;4982803;28;20046;-86
2022/10/13 16:10:23;;;;;;;13.48;9.82;;;13.40;99.90;;;;;;4972762;28;20046;-85
2022/10/13 16:12:48;;;;;;;16.10;12.05;;;13.40;99.90;;;;;;4986683;28;20050;-85
2022/10/13 16:15:16;;;;;;;15.07;11.18;;;13.40;99.90;;;;;;4979275;28;20070;-86
2022/10/13 16:17:44;;;;;;;16.88;11.93;;;13.30;99.90;;;;;;4976368;28;20109;-85
2022/10/13 16:20:10;;;;;;;10.98;9.82;;;13.30;99.90;;;;;;4980253;28;20388;-86
2022/10/13 16:22:36;;;;;;;12.40;10.20;;;13.30;99.90;;;;;;4987651;28;20365;-89
2022/10/13 16:25:04;;;;;;;12.65;10.80;;;13.90;99.90;;;;;;4988058;28;20046;-90
2022/10/13 16:27:31;;;;;;;12.40;9.50;;;13.20;99.90;;;;;;4986209;28;20148;-90
2022/10/13 16:29:56;;;;;;;10.57;9.18;;;13.20;99.90;;;;;;4988665;28;20042;-90
2022/10/13 16:32:22;;;;;;;12.82;9.80;;;13.20;99.90;;;;;;4988268;28;20050;-89
2022/10/13 16:34:48;;;;;;;11.60;9.45;;;13.10;99.90;;;;;;4987649;28;20057;-89
2022/10/13 16:37:13;;;;;;;13.18;10.60;;;13.50;99.90;;;;;;4960909;28;20043;-89
2022/10/13 16:39:39;;;;;;;10.27;8.48;;;13.00;99.90;;;;;;4968884;28;20098;-88
2022/10/13 16:42:04;;;;;;;13.93;9.80;;;13.10;99.90;;;;;;4953082;28;20050;-89
2022/10/13 16:44:30;;;;;;;12.30;9.77;;;14.30;99.90;;;;;;4968929;28;20129;-88
2022/10/13 16:46:57;;;;;;;13.20;9.02;;;14.30;99.90;;;;;;4952696;28;20046;-88
2022/10/13 16:49:22;;;;;;;14.50;10.65;;;12.90;99.90;;;;;;4968483;28;20449;-88
2022/10/13 16:51:48;;;;;;;11.93;10.48;;;13.00;99.90;;;;;;4952115;28;20126;-87
2022/10/13 16:54:14;;;;;;;18.40;11.55;;;12.40;99.90;;;;;;4967813;28;20053;-88
2022/10/13 16:56:39;;;;;;;15.60;10.70;;;12.90;99.90;;;;;;4968199;28;20050;-88
2022/10/13 16:59:06;;;;;;;12.95;10.35;;;12.90;99.90;;;;;;4970757;28;20106;-87
2022/10/13 17:01:33;;;;;;;13.50;11.68;;;12.90;99.90;;;;;;4979913;28;20058;-90
2022/10/13 17:04:00;;;;;;;14.73;11.07;;;12.90;99.90;;;;;;4968012;28;20409;-87
2022/10/13 17:06:27;;;;;;;14.60;10.55;;;12.80;99.90;;;;;;4972452;28;20041;-88
2022/10/13 17:08:52;;;;;;;13.82;9.85;;;12.80;99.90;;;;;;4986190;28;20061;-89
2022/10/13 17:11:21;;;;;;;9.55;8.35;;;13.30;99.90;;;;;;4971239;28;20042;-89
2022/10/13 17:13:47;;;;;;;14.05;9.88;;;13.00;99.90;;;;;;4987343;28;20050;-87
2022/10/13 17:16:14;;;;;;;13.55;9.85;;;12.70;99.90;;;;;;4981551;28;20097;-87
2022/10/13 17:18:39;;;;;;;10.60;8.65;;;12.80;99.90;;;;;;4997764;28;20042;-88
2022/10/13 17:21:09;;;;;;;11.60;9.00;;;12.70;99.90;;;;;;4978073;28;20051;-88
2022/10/13 17:23:35;;;;;;;10.27;8.07;;;12.60;99.90;;;;;;4991648;28;20039;-88
2022/10/13 17:26:10;;;;;;;10.93;7.95;;;12.70;99.90;;;;;;4988098;28;20085;-87
2022/10/13 17:28:37;;;;;;;8.80;7.90;;;12.70;99.90;;;;;;4987580;28;20058;-87
2022/10/13 17:31:04;;;;;;;10.27;7.68;;;12.60;99.90;;;;;;4968059;28;20159;-87
2022/10/13 17:33:31;;;;;;;9.15;8.15;;;12.60;99.90;;;;;;4990072;28;20046;-87
2022/10/13 17:36:03;;;;;;;11.20;8.57;;;12.60;99.90;;;;;;4989137;28;20121;-86
2022/10/13 17:38:29;;;;;;;10.68;8.90;;;12.80;99.90;;;;;;4989458;28;20118;-86
2022/10/13 17:41:02;;;;;;;9.73;7.70;;;12.30;99.90;;;;;;4990060;28;20046;-86
2022/10/13 17:43:29;;;;;;;11.32;9.75;;;12.50;99.90;;;;;;4990672;28;20054;-89
2022/10/13 17:46:05;;;;;;;11.98;9.60;;;12.50;99.90;;;;;;4990774;28;20141;-88
2022/10/13 17:48:30;;;;;;;12.45;9.52;;;12.50;99.90;;;;;;4989381;28;20046;-88
2022/10/13 17:51:01;;;;;;;11.38;9.30;;;12.50;99.90;;;;;;4989858;28;20042;-88
2022/10/13 17:53:26;;;;;;;12.15;9.70;;;11.90;99.90;;;;;;4990958;28;20086;-87
2022/10/13 17:55:53;;;;;;;17.48;13.40;;;12.50;99.90;;;;;;4990121;28;20046;-87
2022/10/13 17:58:19;;;;;;;12.38;10.75;;;12.50;99.90;;;;;;4988012;28;20058;-88
2022/10/13 18:00:44;;;;;;;13.88;10.75;;;12.80;99.90;;;;;;4991395;28;20088;-88
2022/10/13 18:03:10;;;;;;;13.45;10.48;;;12.50;99.90;;;;;;4974462;28;20053;-88
2022/10/13 18:05:40;;;;;;;15.60;10.50;;;12.50;99.90;;;;;;4990584;28;20113;-88
2022/10/13 18:08:06;;;;;;;15.23;11.57;;;12.50;99.90;;;;;;4981698;28;20137;-88
2022/10/13 18:10:33;;;;;;;16.25;12.15;;;12.50;99.90;;;;;;4974478;28;20044;-88
2022/10/13 18:12:59;;;;;;;19.05;13.18;;;12.50;99.90;;;;;;4989166;28;20060;-88
2022/10/13 18:15:25;;;;;;;19.63;13.10;;;12.40;99.90;;;;;;4990933;28;20464;-88
2022/10/13 18:17:50;;;;;;;19.73;13.13;;;13.40;99.90;;;;;;4988955;28;20499;-88
2022/10/13 18:20:16;;;;;;;19.25;12.40;;;12.50;99.90;;;;;;4989391;28;20070;-88
2022/10/13 18:22:42;;;;;;;16.92;12.30;;;11.90;99.90;;;;;;4989210;28;20384;-88
2022/10/13 18:25:07;;;;;;;15.93;12.13;;;12.50;99.90;;;;;;4970885;28;20058;-87
2022/10/13 18:27:33;;;;;;;16.52;11.35;;;12.50;99.90;;;;;;4969951;28;20054;-88
2022/10/13 18:29:58;;;;;;;17.27;14.52;;;12.40;99.90;;;;;;4970360;28;20046;-88
2022/10/13 18:32:24;;;;;;;19.10;14.18;;;12.50;99.90;;;;;;4970480;28;20471;-89
2022/10/13 18:34:50;;;;;;;16.30;13.52;;;12.60;99.90;;;;;;4969680;28;20042;-87
2022/10/13 18:37:15;;;;;;;17.77;13.60;;;12.50;99.90;;;;;;4989637;28;20121;-87
2022/10/13 18:39:43;;;;;;;22.75;15.43;;;12.60;99.90;;;;;;4974013;28;20038;-87
2022/10/13 18:42:08;;;;;;;19.80;14.75;;;12.50;99.90;;;;;;4989257;28;20051;-87
2022/10/13 18:44:34;;;;;;;19.30;14.70;;;12.50;99.90;;;;;;4988172;28;20057;-87
2022/10/13 18:47:00;;;;;;;17.80;14.18;;;12.50;99.90;;;;;;4989812;28;20405;-87
2022/10/13 18:49:29;;;;;;;17.23;14.52;;;12.50;99.90;;;;;;4973414;28;20046;-87
2022/10/13 18:51:57;;;;;;;19.55;15.18;;;12.50;99.90;;;;;;4954407;28;20047;-87
2022/10/13 18:54:23;;;;;;;19.98;15.02;;;11.90;99.90;;;;;;4971976;28;21514;-88
2022/10/13 18:56:48;;;;;;;22.60;17.27;;;12.50;99.90;;;;;;4960671;28;20486;-88
2022/10/13 18:59:15;;;;;;;23.33;17.33;;;12.50;99.90;;;;;;4970115;28;20066;-87
2022/10/13 19:01:41;;;;;;;27.65;18.83;;;12.70;99.90;;;;;;4953380;28;20142;-87
2022/10/13 19:04:07;;;;;;;24.00;16.80;;;12.80;99.90;;;;;;4972575;28;20053;-87
2022/10/13 19:06:34;;;;;;;28.10;18.65;;;12.50;99.90;;;;;;4970478;28;20054;-87
2022/10/13 19:09:09;;;;;;;28.33;19.98;;;11.80;99.90;;;;;;4953604;28;20105;-88
2022/10/13 19:11:36;;;;;;;23.27;18.27;;;12.70;99.90;;;;;;4974013;28;20061;-88
2022/10/13 19:14:02;;;;;;;29.25;21.67;;;13.70;99.90;;;;;;4989599;28;20132;-87
2022/10/13 19:16:29;;;;;;;31.42;22.52;;;12.50;99.90;;;;;;4987456;28;20042;-88
2022/10/13 19:18:55;;;;;;;31.65;21.40;;;12.60;99.90;;;;;;4973120;28;20054;-87
2022/10/13 19:21:21;;;;;;;32.85;23.63;;;12.60;99.90;;;;;;4970611;28;20038;-86
2022/10/13 19:23:48;;;;;;;42.92;27.00;;;12.60;99.90;;;;;;4969733;28;20138;-86
2022/10/13 19:26:19;;;;;;;32.88;22.75;;;12.60;99.90;;;;;;4969135;28;20415;-86
2022/10/13 19:28:45;;;;;;;42.22;27.73;;;12.60;99.90;;;;;;4970764;28;20074;-84
2022/10/13 19:31:14;;;;;;;33.15;23.33;;;12.60;99.90;;;;;;4984897;28;20046;-84
2022/10/13 19:33:44;;;;;;;35.08;25.63;;;12.60;99.90;;;;;;4978235;28;20118;-84
2022/10/13 19:36:12;;;;;;;38.55;25.90;;;12.50;99.90;;;;;;4969247;28;20512;-85
2022/10/13 19:38:37;;;;;;;33.05;22.55;;;12.60;99.90;;;;;;4969332;28;20050;-84
2022/10/13 19:41:05;;;;;;;36.47;25.08;;;12.50;99.90;;;;;;4970186;28;20058;-85
2022/10/13 19:43:32;;;;;;;38.28;26.55;;;12.60;99.90;;;;;;4977351;28;20046;-86
2022/10/13 19:45:58;;;;;;;34.90;23.60;;;12.60;99.90;;;;;;4986656;28;20608;-86
2022/10/13 19:48:24;;;;;;;38.50;24.80;;;12.40;99.90;;;;;;4983308;28;20055;-86
2022/10/13 19:50:50;;;;;;;33.83;24.15;;;12.60;99.90;;;;;;4980626;28;20473;-86
2022/10/13 19:53:16;;;;;;;36.38;26.90;;;12.60;99.90;;;;;;4988594;28;20049;-86
2022/10/13 19:55:45;;;;;;;36.80;27.77;;;12.60;99.90;;;;;;4970442;28;20043;-87
2022/10/13 19:58:11;;;;;;;46.58;32.78;;;12.60;99.90;;;;;;4972616;28;20086;-87
2022/10/13 20:00:36;;;;;;;43.30;32.08;;;12.60;99.90;;;;;;4964935;28;20087;-88
2022/10/13 20:03:03;;;;;;;42.95;29.70;;;13.70;99.90;;;;;;4977282;28;20049;-88
2022/10/13 20:05:30;;;;;;;38.08;27.80;;;12.60;99.90;;;;;;4981685;28;20042;-88
2022/10/13 20:07:55;;;;;;;34.03;24.80;;;12.60;99.90;;;;;;4967624;28;20042;-88
2022/10/13 20:10:22;;;;;;;29.70;23.15;;;11.70;99.90;;;;;;4988457;28;20520;-87
2022/10/13 20:12:47;;;;;;;33.22;22.70;;;13.20;99.90;;;;;;4977948;28;20046;-88
2022/10/13 20:15:13;;;;;;;31.48;23.40;;;12.60;99.90;;;;;;4969994;28;20042;-86
2022/10/13 20:17:39;;;;;;;35.50;26.17;;;12.50;99.90;;;;;;4969836;28;20058;-86
2022/10/13 20:20:05;;;;;;;46.10;30.45;;;12.60;99.90;;;;;;4974262;28;20054;-86
2022/10/13 20:22:32;;;;;;;38.70;26.90;;;12.60;99.90;;;;;;4979491;28;20086;-87
2022/10/13 20:24:57;;;;;;;46.42;29.90;;;12.60;99.90;;;;;;4981793;28;20042;-86
2022/10/13 20:27:23;;;;;;;45.83;29.63;;;12.50;99.90;;;;;;4977471;28;20047;-86
2022/10/13 20:29:49;;;;;;;37.45;27.20;;;12.60;99.90;;;;;;4988259;28;20038;-86
2022/10/13 20:32:16;;;;;;;52.97;32.67;;;12.50;99.90;;;;;;4981849;28;20042;-85
2022/10/13 20:34:42;;;;;;;44.38;32.13;;;12.60;99.90;;;;;;4972190;28;20097;-86
2022/10/13 20:37:07;;;;;;;44.38;29.88;;;12.50;99.90;;;;;;4978448;28;20042;-85
2022/10/13 20:39:33;;;;;;;39.40;29.13;;;12.60;99.90;;;;;;4986884;28;20124;-85
2022/10/13 20:41:59;;;;;;;40.45;29.17;;;12.60;99.90;;;;;;4982643;28;20038;-85
2022/10/13 20:44:25;;;;;;;43.95;28.77;;;12.60;99.90;;;;;;4974335;28;20073;-84
2022/10/13 20:46:50;;;;;;;41.22;30.30;;;12.60;99.90;;;;;;4983844;28;20043;-87
2022/10/13 20:49:16;;;;;;;40.88;30.48;;;12.60;99.90;;;;;;4974286;28;20101;-85
2022/10/13 20:51:42;;;;;;;45.45;29.92;;;12.60;99.90;;;;;;4968562;28;20038;-86
2022/10/13 20:54:12;;;;;;;43.15;29.80;;;11.90;99.90;;;;;;4988179;28;20047;-85
2022/10/13 20:56:38;;;;;;;51.03;30.58;;;12.20;99.90;;;;;;4973983;28;20500;-86
2022/10/13 20:59:06;;;;;;;52.63;31.67;;;12.60;99.90;;;;;;4986207;28;20582;-86
2022/10/13 21:01:32;;;;;;;45.47;29.02;;;12.50;99.90;;;;;;4979045;28;20125;-86
2022/10/13 21:03:58;;;;;;;38.15;28.10;;;12.60;99.90;;;;;;4983655;28;20068;-87
2022/10/13 21:06:24;;;;;;;39.40;29.02;;;12.50;99.90;;;;;;4968237;28;20485;-86
2022/10/13 21:08:51;;;;;;;43.25;28.73;;;14.00;99.90;;;;;;4987387;28;20042;-86
2022/10/13 21:11:19;;;;;;;48.75;32.60;;;12.60;99.90;;;;;;4971147;28;20504;-86
2022/10/13 21:13:44;;;;;;;49.33;34.03;;;12.60;99.90;;;;;;4986702;28;20046;-86
2022/10/13 21:16:13;;;;;;;50.22;33.35;;;12.60;99.90;;;;;;4986648;28;20043;-87
2022/10/13 21:18:49;;;;;;;47.97;31.33;;;12.80;99.90;;;;;;4979845;28;20047;-87
2022/10/13 21:21:17;;;;;;;46.78;29.92;;;12.30;99.90;;;;;;4968671;28;20118;-86
2022/10/13 21:23:43;;;;;;;37.47;27.23;;;12.60;99.90;;;;;;4983327;28;20047;-87
2022/10/13 21:26:09;;;;;;;40.10;28.33;;;12.60;99.90;;;;;;4967208;28;20042;-89
2022/10/13 21:28:36;;;;;;;44.28;28.35;;;13.50;99.90;;;;;;4969419;28;20043;-87
2022/10/13 21:31:04;;;;;;;47.92;29.95;;;12.60;99.90;;;;;;4985126;28;20050;-87
2022/10/13 21:33:30;;;;;;;44.83;29.33;;;12.60;99.90;;;;;;4984087;28;20050;-87
2022/10/13 21:35:56;;;;;;;50.60;30.27;;;12.60;99.90;;;;;;4986094;28;20042;-86
2022/10/13 21:38:22;;;;;;;52.67;32.40;;;12.60;99.90;;;;;;4986829;28;20042;-87
2022/10/13 21:40:47;;;;;;;53.75;33.97;;;12.60;99.90;;;;;;4972414;28;20502;-87
2022/10/13 21:43:13;;;;;;;52.65;35.20;;;12.60;99.90;;;;;;4967995;28;20145;-87